sensor_id;sensor_type;location;lat;lon;timestamp;temperature;humidity
5775;DHT22;2913;51.120;6.772;2024-02-14T00:00:07;9.20;99.90
5775;DHT22;2913;51.120;6.772;2024-02-14T00:02:40;9.20;99.90
5775;DHT22;2913;51.120;6.772;2024-02-14T00:05:07;9.20;99.90
5775;DHT22;2913;51.120;6.772;2024-02-14T00:07:32;9.20;99.90
5775;DHT22;2913;51.120;6.772;2024-02-14T00:10:01;9.20;99.90
5775;DHT22;2913;51.120;6.772;2024-02-14T00:12:26;9.20;99.90
5775;DHT22;2913;51.120;6.772;2024-02-14T00:14:52;9.30;99.90
5775;DHT22;2913;51.120;6.772;2024-02-14T00:17:20;9.20;99.90
5775;DHT22;2913;51.120;6.772;2024-02-14T00:19:48;9.20;99.90
5775;DHT22;2913;51.120;6.772;2024-02-14T00:22:16;9.20;99.90
5775;DHT22;2913;51.120;6.772;2024-02-14T00:24:42;9.20;99.90
5775;DHT22;2913;51.120;6.772;2024-02-14T00:27:08;9.20;99.90
5775;DHT22;2913;51.120;6.772;2024-02-14T00:32:03;9.00;99.90
5775;DHT22;2913;51.120;6.772;2024-02-14T00:34:31;9.00;99.90
5775;DHT22;2913;51.120;6.772;2024-02-14T00:36:56;9.10;99.90
5775;DHT22;2913;51.120;6.772;2024-02-14T00:39:22;9.10;99.90
5775;DHT22;2913;51.120;6.772;2024-02-14T00:41:48;9.10;99.90
5775;DHT22;2913;51.120;6.772;2024-02-14T00:44:14;9.00;99.90
5775;DHT22;2913;51.120;6.772;2024-02-14T00:46:46;9.10;99.90
5775;DHT22;2913;51.120;6.772;2024-02-14T00:49:12;9.10;99.90
5775;DHT22;2913;51.120;6.772;2024-02-14T00:51:38;9.00;99.90
5775;DHT22;2913;51.120;6.772;2024-02-14T00:54:07;9.00;99.90
5775;DHT22;2913;51.120;6.772;2024-02-14T00:56:34;9.10;99.90
5775;DHT22;2913;51.120;6.772;2024-02-14T00:59:00;9.20;99.90
5775;DHT22;2913;51.120;6.772;2024-02-14T01:01:28;9.20;99.90
5775;DHT22;2913;51.120;6.772;2024-02-14T01:03:54;9.20;99.90
5775;DHT22;2913;51.120;6.772;2024-02-14T01:06:22;9.30;99.90
5775;DHT22;2913;51.120;6.772;2024-02-14T01:08:50;9.30;99.90
5775;DHT22;2913;51.120;6.772;2024-02-14T01:11:18;9.30;99.90
5775;DHT22;2913;51.120;6.772;2024-02-14T01:13:46;9.30;99.90
5775;DHT22;2913;51.120;6.772;2024-02-14T01:16:14;9.30;99.90
5775;DHT22;2913;51.120;6.772;2024-02-14T01:18:42;9.30;99.90
5775;DHT22;2913;51.120;6.772;2024-02-14T01:21:07;9.30;99.90
5775;DHT22;2913;51.120;6.772;2024-02-14T01:23:34;9.50;99.90
5775;DHT22;2913;51.120;6.772;2024-02-14T01:26:01;9.30;99.90
5775;DHT22;2913;51.120;6.772;2024-02-14T01:28:30;9.40;99.90
5775;DHT22;2913;51.120;6.772;2024-02-14T01:30:58;9.40;99.90
5775;DHT22;2913;51.120;6.772;2024-02-14T01:33:24;9.20;99.90
5775;DHT22;2913;51.120;6.772;2024-02-14T01:35:50;9.40;99.90
5775;DHT22;2913;51.120;6.772;2024-02-14T01:38:15;9.40;99.90
5775;DHT22;2913;51.120;6.772;2024-02-14T01:40:44;9.50;99.90
5775;DHT22;2913;51.120;6.772;2024-02-14T01:43:10;9.50;99.90
5775;DHT22;2913;51.120;6.772;2024-02-14T01:45:36;9.50;99.90
5775;DHT22;2913;51.120;6.772;2024-02-14T01:48:07;9.50;99.90
5775;DHT22;2913;51.120;6.772;2024-02-14T01:50:35;9.30;99.90
5775;DHT22;2913;51.120;6.772;2024-02-14T01:53:04;9.20;99.90
5775;DHT22;2913;51.120;6.772;2024-02-14T01:57:57;9.30;99.90
5775;DHT22;2913;51.120;6.772;2024-02-14T02:00:23;9.30;99.90
5775;DHT22;2913;51.120;6.772;2024-02-14T02:02:49;9.40;99.90
5775;DHT22;2913;51.120;6.772;2024-02-14T02:05:17;9.40;99.90
5775;DHT22;2913;51.120;6.772;2024-02-14T02:07:44;9.50;99.90
5775;DHT22;2913;51.120;6.772;2024-02-14T02:10:14;9.50;99.90
5775;DHT22;2913;51.120;6.772;2024-02-14T02:12:39;9.50;99.90
5775;DHT22;2913;51.120;6.772;2024-02-14T02:15:11;9.60;99.90
5775;DHT22;2913;51.120;6.772;2024-02-14T02:17:40;9.50;99.90
5775;DHT22;2913;51.120;6.772;2024-02-14T02:20:11;9.50;99.90
5775;DHT22;2913;51.120;6.772;2024-02-14T02:22:36;9.60;99.90
5775;DHT22;2913;51.120;6.772;2024-02-14T02:25:03;9.60;99.90
5775;DHT22;2913;51.120;6.772;2024-02-14T02:27:36;9.70;99.90
5775;DHT22;2913;51.120;6.772;2024-02-14T02:30:06;9.70;99.90
5775;DHT22;2913;51.120;6.772;2024-02-14T02:32:32;9.60;99.90
5775;DHT22;2913;51.120;6.772;2024-02-14T02:34:58;9.70;99.90
5775;DHT22;2913;51.120;6.772;2024-02-14T02:37:25;9.70;99.90
5775;DHT22;2913;51.120;6.772;2024-02-14T02:39:53;9.70;99.90
5775;DHT22;2913;51.120;6.772;2024-02-14T02:44:52;9.70;99.90
5775;DHT22;2913;51.120;6.772;2024-02-14T02:47:17;9.80;99.90
5775;DHT22;2913;51.120;6.772;2024-02-14T02:49:43;9.70;99.90
5775;DHT22;2913;51.120;6.772;2024-02-14T02:52:10;9.70;99.90
5775;DHT22;2913;51.120;6.772;2024-02-14T02:54:36;9.70;99.90
5775;DHT22;2913;51.120;6.772;2024-02-14T02:57:02;9.80;99.90
5775;DHT22;2913;51.120;6.772;2024-02-14T02:59:35;9.80;99.90
5775;DHT22;2913;51.120;6.772;2024-02-14T03:02:04;9.90;99.90
5775;DHT22;2913;51.120;6.772;2024-02-14T03:04:33;9.80;99.90
5775;DHT22;2913;51.120;6.772;2024-02-14T03:07:01;9.90;99.90
5775;DHT22;2913;51.120;6.772;2024-02-14T03:09:34;9.90;99.90
5775;DHT22;2913;51.120;6.772;2024-02-14T03:12:03;10.00;99.90
5775;DHT22;2913;51.120;6.772;2024-02-14T03:14:32;9.90;99.90
5775;DHT22;2913;51.120;6.772;2024-02-14T03:17:04;10.00;99.90
5775;DHT22;2913;51.120;6.772;2024-02-14T03:19:32;10.00;99.90
5775;DHT22;2913;51.120;6.772;2024-02-14T03:22:03;10.00;99.90
5775;DHT22;2913;51.120;6.772;2024-02-14T03:24:34;10.00;99.90
5775;DHT22;2913;51.120;6.772;2024-02-14T03:27:02;10.00;99.90
5775;DHT22;2913;51.120;6.772;2024-02-14T03:29:29;10.00;99.90
5775;DHT22;2913;51.120;6.772;2024-02-14T03:31:55;10.10;99.90
5775;DHT22;2913;51.120;6.772;2024-02-14T03:34:24;10.00;99.90
5775;DHT22;2913;51.120;6.772;2024-02-14T03:36:50;10.00;99.90
5775;DHT22;2913;51.120;6.772;2024-02-14T03:39:18;10.00;99.90
5775;DHT22;2913;51.120;6.772;2024-02-14T03:41:44;10.10;99.90
5775;DHT22;2913;51.120;6.772;2024-02-14T03:44:12;10.10;99.90
5775;DHT22;2913;51.120;6.772;2024-02-14T03:46:38;10.10;99.90
5775;DHT22;2913;51.120;6.772;2024-02-14T03:49:04;10.00;99.90
5775;DHT22;2913;51.120;6.772;2024-02-14T03:51:29;10.00;99.90
5775;DHT22;2913;51.120;6.772;2024-02-14T03:54:00;10.10;99.90
5775;DHT22;2913;51.120;6.772;2024-02-14T03:56:30;10.00;99.90
5775;DHT22;2913;51.120;6.772;2024-02-14T03:59:00;10.00;99.90
5775;DHT22;2913;51.120;6.772;2024-02-14T04:01:26;10.10;99.90
5775;DHT22;2913;51.120;6.772;2024-02-14T04:03:52;10.00;99.90
5775;DHT22;2913;51.120;6.772;2024-02-14T04:06:20;10.00;99.90
5775;DHT22;2913;51.120;6.772;2024-02-14T04:08:48;10.10;99.90
5775;DHT22;2913;51.120;6.772;2024-02-14T04:11:16;10.00;99.90
5775;DHT22;2913;51.120;6.772;2024-02-14T04:13:42;10.10;99.90
5775;DHT22;2913;51.120;6.772;2024-02-14T04:16:10;10.10;99.90
5775;DHT22;2913;51.120;6.772;2024-02-14T04:18:38;10.10;99.90
5775;DHT22;2913;51.120;6.772;2024-02-14T04:21:04;10.10;99.90
5775;DHT22;2913;51.120;6.772;2024-02-14T04:23:32;10.10;99.90
5775;DHT22;2913;51.120;6.772;2024-02-14T04:25:58;10.10;99.90
5775;DHT22;2913;51.120;6.772;2024-02-14T04:28:26;10.10;99.90
5775;DHT22;2913;51.120;6.772;2024-02-14T04:30:51;10.10;99.90
5775;DHT22;2913;51.120;6.772;2024-02-14T04:33:21;10.00;99.90
5775;DHT22;2913;51.120;6.772;2024-02-14T04:35:47;10.10;99.90
5775;DHT22;2913;51.120;6.772;2024-02-14T04:38:12;10.10;99.90
5775;DHT22;2913;51.120;6.772;2024-02-14T04:43:05;10.00;99.90
5775;DHT22;2913;51.120;6.772;2024-02-14T04:45:33;10.10;99.90
5775;DHT22;2913;51.120;6.772;2024-02-14T04:47:58;10.10;99.90
5775;DHT22;2913;51.120;6.772;2024-02-14T04:50:24;10.10;99.90
5775;DHT22;2913;51.120;6.772;2024-02-14T04:52:50;10.10;99.90
5775;DHT22;2913;51.120;6.772;2024-02-14T04:55:15;10.10;99.90
5775;DHT22;2913;51.120;6.772;2024-02-14T04:57:41;10.10;99.90
5775;DHT22;2913;51.120;6.772;2024-02-14T05:00:07;10.00;99.90
5775;DHT22;2913;51.120;6.772;2024-02-14T05:02:34;10.10;99.90
5775;DHT22;2913;51.120;6.772;2024-02-14T05:05:02;10.10;99.90
5775;DHT22;2913;51.120;6.772;2024-02-14T05:07:30;10.10;99.90
5775;DHT22;2913;51.120;6.772;2024-02-14T05:09:57;10.10;99.90
5775;DHT22;2913;51.120;6.772;2024-02-14T05:12:24;10.10;99.90
5775;DHT22;2913;51.120;6.772;2024-02-14T05:14:50;10.20;99.90
5775;DHT22;2913;51.120;6.772;2024-02-14T05:19:42;10.30;99.90
5775;DHT22;2913;51.120;6.772;2024-02-14T05:22:08;10.30;99.90
5775;DHT22;2913;51.120;6.772;2024-02-14T05:24:34;10.20;99.90
5775;DHT22;2913;51.120;6.772;2024-02-14T05:27:05;10.10;99.90
5775;DHT22;2913;51.120;6.772;2024-02-14T05:29:31;10.20;99.90
5775;DHT22;2913;51.120;6.772;2024-02-14T05:31:57;10.10;99.90
5775;DHT22;2913;51.120;6.772;2024-02-14T05:34:23;10.20;99.90
5775;DHT22;2913;51.120;6.772;2024-02-14T05:36:48;10.20;99.90
5775;DHT22;2913;51.120;6.772;2024-02-14T05:39:14;10.20;99.90
5775;DHT22;2913;51.120;6.772;2024-02-14T05:41:43;10.10;99.90
5775;DHT22;2913;51.120;6.772;2024-02-14T05:44:13;10.10;99.90
5775;DHT22;2913;51.120;6.772;2024-02-14T05:46:39;10.10;99.90
5775;DHT22;2913;51.120;6.772;2024-02-14T05:51:34;10.10;99.90
5775;DHT22;2913;51.120;6.772;2024-02-14T05:56:28;10.20;99.90
5775;DHT22;2913;51.120;6.772;2024-02-14T05:58:54;10.20;99.90
5775;DHT22;2913;51.120;6.772;2024-02-14T06:01:19;10.20;99.90
5775;DHT22;2913;51.120;6.772;2024-02-14T06:03:47;10.20;99.90
5775;DHT22;2913;51.120;6.772;2024-02-14T06:06:13;10.20;99.90
5775;DHT22;2913;51.120;6.772;2024-02-14T06:08:39;10.20;99.90
5775;DHT22;2913;51.120;6.772;2024-02-14T06:11:07;10.20;99.90
5775;DHT22;2913;51.120;6.772;2024-02-14T06:13:34;10.30;99.90
5775;DHT22;2913;51.120;6.772;2024-02-14T06:16:01;10.30;99.90
5775;DHT22;2913;51.120;6.772;2024-02-14T06:18:26;10.30;99.90
5775;DHT22;2913;51.120;6.772;2024-02-14T06:20:55;10.20;99.90
5775;DHT22;2913;51.120;6.772;2024-02-14T06:23:20;10.30;99.90
5775;DHT22;2913;51.120;6.772;2024-02-14T06:25:46;10.20;99.90
5775;DHT22;2913;51.120;6.772;2024-02-14T06:30:38;10.30;99.90
5775;DHT22;2913;51.120;6.772;2024-02-14T06:33:03;10.20;99.90
5775;DHT22;2913;51.120;6.772;2024-02-14T06:35:29;10.20;99.90
5775;DHT22;2913;51.120;6.772;2024-02-14T06:37:58;10.20;99.90
5775;DHT22;2913;51.120;6.772;2024-02-14T06:40:25;10.30;99.90
5775;DHT22;2913;51.120;6.772;2024-02-14T06:42:52;10.30;99.90
5775;DHT22;2913;51.120;6.772;2024-02-14T06:45:22;10.30;99.90
5775;DHT22;2913;51.120;6.772;2024-02-14T06:47:48;10.30;99.90
5775;DHT22;2913;51.120;6.772;2024-02-14T06:50:16;10.30;99.90
5775;DHT22;2913;51.120;6.772;2024-02-14T06:52:41;10.30;99.90
5775;DHT22;2913;51.120;6.772;2024-02-14T06:55:07;10.40;99.90
5775;DHT22;2913;51.120;6.772;2024-02-14T06:57:33;10.40;99.90
5775;DHT22;2913;51.120;6.772;2024-02-14T06:59:59;10.40;99.90
5775;DHT22;2913;51.120;6.772;2024-02-14T07:02:25;10.30;99.90
5775;DHT22;2913;51.120;6.772;2024-02-14T07:04:54;10.30;99.90
5775;DHT22;2913;51.120;6.772;2024-02-14T07:07:20;10.40;99.90
5775;DHT22;2913;51.120;6.772;2024-02-14T07:09:45;10.30;99.90
5775;DHT22;2913;51.120;6.772;2024-02-14T07:14:39;10.40;99.90
5775;DHT22;2913;51.120;6.772;2024-02-14T07:17:06;10.40;99.90
5775;DHT22;2913;51.120;6.772;2024-02-14T07:19:31;10.50;99.90
5775;DHT22;2913;51.120;6.772;2024-02-14T07:21:57;10.50;99.90
5775;DHT22;2913;51.120;6.772;2024-02-14T07:24:23;10.50;99.90
5775;DHT22;2913;51.120;6.772;2024-02-14T07:29:14;10.50;99.90
5775;DHT22;2913;51.120;6.772;2024-02-14T07:31:40;10.50;99.90
5775;DHT22;2913;51.120;6.772;2024-02-14T07:34:07;10.60;99.90
5775;DHT22;2913;51.120;6.772;2024-02-14T07:36:34;10.60;99.90
5775;DHT22;2913;51.120;6.772;2024-02-14T07:39:03;10.60;99.90
5775;DHT22;2913;51.120;6.772;2024-02-14T07:41:28;10.60;99.90
5775;DHT22;2913;51.120;6.772;2024-02-14T07:46:24;10.70;99.90
5775;DHT22;2913;51.120;6.772;2024-02-14T07:48:54;10.70;99.90
5775;DHT22;2913;51.120;6.772;2024-02-14T07:51:19;10.70;99.90
5775;DHT22;2913;51.120;6.772;2024-02-14T07:53:45;10.70;99.90
5775;DHT22;2913;51.120;6.772;2024-02-14T07:56:13;10.80;99.90
5775;DHT22;2913;51.120;6.772;2024-02-14T07:58:41;10.80;99.90
5775;DHT22;2913;51.120;6.772;2024-02-14T08:01:09;10.80;99.90
5775;DHT22;2913;51.120;6.772;2024-02-14T08:03:39;10.90;99.90
5775;DHT22;2913;51.120;6.772;2024-02-14T08:06:05;10.90;99.90
5775;DHT22;2913;51.120;6.772;2024-02-14T08:08:31;10.90;99.90
5775;DHT22;2913;51.120;6.772;2024-02-14T08:10:56;10.90;99.90
5775;DHT22;2913;51.120;6.772;2024-02-14T08:13:22;11.00;99.90
5775;DHT22;2913;51.120;6.772;2024-02-14T08:15:52;10.90;99.90
5775;DHT22;2913;51.120;6.772;2024-02-14T08:18:20;11.10;99.90
5775;DHT22;2913;51.120;6.772;2024-02-14T08:20:46;11.00;99.90
5775;DHT22;2913;51.120;6.772;2024-02-14T08:23:14;11.10;99.90
5775;DHT22;2913;51.120;6.772;2024-02-14T08:25:42;11.20;99.90
5775;DHT22;2913;51.120;6.772;2024-02-14T08:28:09;11.20;99.90
5775;DHT22;2913;51.120;6.772;2024-02-14T08:30:37;11.30;99.90
5775;DHT22;2913;51.120;6.772;2024-02-14T08:33:06;11.30;99.90
5775;DHT22;2913;51.120;6.772;2024-02-14T08:35:34;11.40;99.90
5775;DHT22;2913;51.120;6.772;2024-02-14T08:38:02;11.40;99.90
5775;DHT22;2913;51.120;6.772;2024-02-14T08:40:27;11.50;99.90
5775;DHT22;2913;51.120;6.772;2024-02-14T08:42:55;11.50;99.90
5775;DHT22;2913;51.120;6.772;2024-02-14T08:45:23;11.50;99.90
5775;DHT22;2913;51.120;6.772;2024-02-14T08:47:49;11.60;99.90
5775;DHT22;2913;51.120;6.772;2024-02-14T08:50:15;11.80;99.90
5775;DHT22;2913;51.120;6.772;2024-02-14T08:52:40;11.60;99.90
5775;DHT22;2913;51.120;6.772;2024-02-14T08:55:06;11.70;99.90
5775;DHT22;2913;51.120;6.772;2024-02-14T08:57:37;11.70;99.90
5775;DHT22;2913;51.120;6.772;2024-02-14T09:00:03;11.80;99.90
5775;DHT22;2913;51.120;6.772;2024-02-14T09:02:29;11.90;99.90
5775;DHT22;2913;51.120;6.772;2024-02-14T09:04:55;12.00;99.90
5775;DHT22;2913;51.120;6.772;2024-02-14T09:07:21;12.10;99.90
5775;DHT22;2913;51.120;6.772;2024-02-14T09:09:46;12.10;99.90
5775;DHT22;2913;51.120;6.772;2024-02-14T09:12:14;12.10;99.90
5775;DHT22;2913;51.120;6.772;2024-02-14T09:14:40;12.20;99.90
5775;DHT22;2913;51.120;6.772;2024-02-14T09:17:05;12.30;99.90
5775;DHT22;2913;51.120;6.772;2024-02-14T09:19:34;12.30;99.90
5775;DHT22;2913;51.120;6.772;2024-02-14T09:22:02;12.40;99.90
5775;DHT22;2913;51.120;6.772;2024-02-14T09:24:32;12.60;99.90
5775;DHT22;2913;51.120;6.772;2024-02-14T09:26:57;12.60;99.90
5775;DHT22;2913;51.120;6.772;2024-02-14T09:29:30;12.60;99.90
5775;DHT22;2913;51.120;6.772;2024-02-14T09:31:59;12.70;99.90
5775;DHT22;2913;51.120;6.772;2024-02-14T09:34:31;12.80;99.90
5775;DHT22;2913;51.120;6.772;2024-02-14T09:36:56;12.70;99.90
5775;DHT22;2913;51.120;6.772;2024-02-14T09:39:24;12.70;99.90
5775;DHT22;2913;51.120;6.772;2024-02-14T09:41:55;12.70;99.90
5775;DHT22;2913;51.120;6.772;2024-02-14T09:44:29;12.70;99.90
5775;DHT22;2913;51.120;6.772;2024-02-14T09:46:56;12.70;99.90
5775;DHT22;2913;51.120;6.772;2024-02-14T09:49:24;12.60;99.90
5775;DHT22;2913;51.120;6.772;2024-02-14T09:51:51;12.60;99.90
5775;DHT22;2913;51.120;6.772;2024-02-14T09:54:17;12.60;99.90
5775;DHT22;2913;51.120;6.772;2024-02-14T09:56:50;12.60;99.90
5775;DHT22;2913;51.120;6.772;2024-02-14T09:59:19;12.60;99.90
5775;DHT22;2913;51.120;6.772;2024-02-14T10:01:45;12.60;99.90
5775;DHT22;2913;51.120;6.772;2024-02-14T10:04:11;12.60;99.90
5775;DHT22;2913;51.120;6.772;2024-02-14T10:06:39;12.70;99.90
5775;DHT22;2913;51.120;6.772;2024-02-14T10:09:07;12.70;99.90
5775;DHT22;2913;51.120;6.772;2024-02-14T10:11:35;12.70;99.90
5775;DHT22;2913;51.120;6.772;2024-02-14T10:14:02;12.80;99.90
5775;DHT22;2913;51.120;6.772;2024-02-14T10:16:31;12.80;99.90
5775;DHT22;2913;51.120;6.772;2024-02-14T10:18:57;12.70;99.90
5775;DHT22;2913;51.120;6.772;2024-02-14T10:21:24;12.70;99.90
5775;DHT22;2913;51.120;6.772;2024-02-14T10:23:51;12.80;99.90
5775;DHT22;2913;51.120;6.772;2024-02-14T10:26:18;12.80;99.90
5775;DHT22;2913;51.120;6.772;2024-02-14T10:28:45;12.80;99.90
5775;DHT22;2913;51.120;6.772;2024-02-14T10:31:11;12.80;99.90
5775;DHT22;2913;51.120;6.772;2024-02-14T10:36:07;12.90;99.90
5775;DHT22;2913;51.120;6.772;2024-02-14T10:38:34;13.00;99.90
5775;DHT22;2913;51.120;6.772;2024-02-14T10:41:00;12.90;99.90
5775;DHT22;2913;51.120;6.772;2024-02-14T10:43:30;12.90;99.90
5775;DHT22;2913;51.120;6.772;2024-02-14T10:45:59;12.90;99.90
5775;DHT22;2913;51.120;6.772;2024-02-14T10:48:28;13.00;99.90
5775;DHT22;2913;51.120;6.772;2024-02-14T10:51:02;12.90;99.90
5775;DHT22;2913;51.120;6.772;2024-02-14T10:53:32;13.00;99.90
5775;DHT22;2913;51.120;6.772;2024-02-14T10:56:02;13.00;99.90
5775;DHT22;2913;51.120;6.772;2024-02-14T10:58:29;12.90;99.90
5775;DHT22;2913;51.120;6.772;2024-02-14T11:00:56;13.00;99.90
5775;DHT22;2913;51.120;6.772;2024-02-14T11:03:30;13.00;99.90
5775;DHT22;2913;51.120;6.772;2024-02-14T11:05:55;13.00;99.90
5775;DHT22;2913;51.120;6.772;2024-02-14T11:08:29;13.00;99.90
5775;DHT22;2913;51.120;6.772;2024-02-14T11:10:58;12.90;99.90
5775;DHT22;2913;51.120;6.772;2024-02-14T11:13:31;13.00;99.90
5775;DHT22;2913;51.120;6.772;2024-02-14T11:16:03;13.10;99.90
5775;DHT22;2913;51.120;6.772;2024-02-14T11:18:35;13.10;99.90
5775;DHT22;2913;51.120;6.772;2024-02-14T11:21:15;13.10;99.90
5775;DHT22;2913;51.120;6.772;2024-02-14T11:23:41;13.20;99.90
5775;DHT22;2913;51.120;6.772;2024-02-14T11:26:15;13.30;99.90
5775;DHT22;2913;51.120;6.772;2024-02-14T11:28:41;13.30;99.90
5775;DHT22;2913;51.120;6.772;2024-02-14T11:31:07;13.40;99.90
5775;DHT22;2913;51.120;6.772;2024-02-14T11:33:37;13.40;99.90
5775;DHT22;2913;51.120;6.772;2024-02-14T11:36:09;13.50;99.90
5775;DHT22;2913;51.120;6.772;2024-02-14T11:38:40;13.50;99.90
5775;DHT22;2913;51.120;6.772;2024-02-14T11:41:12;13.50;99.90
5775;DHT22;2913;51.120;6.772;2024-02-14T11:43:38;13.60;99.90
5775;DHT22;2913;51.120;6.772;2024-02-14T11:46:04;13.50;99.90
5775;DHT22;2913;51.120;6.772;2024-02-14T11:48:30;13.50;99.90
5775;DHT22;2913;51.120;6.772;2024-02-14T11:50:57;13.50;99.90
5775;DHT22;2913;51.120;6.772;2024-02-14T11:53:22;13.50;99.90
5775;DHT22;2913;51.120;6.772;2024-02-14T11:55:48;13.50;99.90
5775;DHT22;2913;51.120;6.772;2024-02-14T11:58:15;13.50;99.90
5775;DHT22;2913;51.120;6.772;2024-02-14T12:00:42;13.40;99.90
5775;DHT22;2913;51.120;6.772;2024-02-14T12:03:24;13.30;99.90
5775;DHT22;2913;51.120;6.772;2024-02-14T12:05:53;13.40;99.90
5775;DHT22;2913;51.120;6.772;2024-02-14T12:08:22;13.30;99.90
5775;DHT22;2913;51.120;6.772;2024-02-14T12:10:48;13.30;99.90
5775;DHT22;2913;51.120;6.772;2024-02-14T12:13:26;13.40;99.90
5775;DHT22;2913;51.120;6.772;2024-02-14T12:15:51;13.40;99.90
5775;DHT22;2913;51.120;6.772;2024-02-14T12:18:22;13.40;99.90
5775;DHT22;2913;51.120;6.772;2024-02-14T12:20:48;13.40;99.90
5775;DHT22;2913;51.120;6.772;2024-02-14T12:23:16;13.40;99.90
5775;DHT22;2913;51.120;6.772;2024-02-14T12:25:47;13.50;99.90
5775;DHT22;2913;51.120;6.772;2024-02-14T12:28:18;13.40;99.90
5775;DHT22;2913;51.120;6.772;2024-02-14T12:30:45;13.50;99.90
5775;DHT22;2913;51.120;6.772;2024-02-14T12:33:12;13.50;99.90
5775;DHT22;2913;51.120;6.772;2024-02-14T12:35:41;13.50;99.90
5775;DHT22;2913;51.120;6.772;2024-02-14T12:38:09;13.50;99.90
5775;DHT22;2913;51.120;6.772;2024-02-14T12:40:36;13.30;99.90
5775;DHT22;2913;51.120;6.772;2024-02-14T12:43:01;13.30;99.90
5775;DHT22;2913;51.120;6.772;2024-02-14T12:45:27;13.30;99.90
5775;DHT22;2913;51.120;6.772;2024-02-14T12:50:27;13.30;99.90
5775;DHT22;2913;51.120;6.772;2024-02-14T12:52:55;13.30;99.90
5775;DHT22;2913;51.120;6.772;2024-02-14T12:55:25;13.30;99.90
5775;DHT22;2913;51.120;6.772;2024-02-14T12:57:54;13.30;99.90
5775;DHT22;2913;51.120;6.772;2024-02-14T13:00:20;13.40;99.90
5775;DHT22;2913;51.120;6.772;2024-02-14T13:02:51;13.40;99.90
5775;DHT22;2913;51.120;6.772;2024-02-14T13:05:16;13.50;99.90
5775;DHT22;2913;51.120;6.772;2024-02-14T13:07:43;13.50;99.90
5775;DHT22;2913;51.120;6.772;2024-02-14T13:10:14;13.50;99.90
5775;DHT22;2913;51.120;6.772;2024-02-14T13:12:40;13.60;99.90
5775;DHT22;2913;51.120;6.772;2024-02-14T13:15:06;13.60;99.90
5775;DHT22;2913;51.120;6.772;2024-02-14T13:17:32;13.50;99.90
5775;DHT22;2913;51.120;6.772;2024-02-14T13:19:58;13.30;99.90
5775;DHT22;2913;51.120;6.772;2024-02-14T13:22:25;13.40;99.90
5775;DHT22;2913;51.120;6.772;2024-02-14T13:24:51;13.40;99.90
5775;DHT22;2913;51.120;6.772;2024-02-14T13:27:19;13.40;99.90
5775;DHT22;2913;51.120;6.772;2024-02-14T13:29:50;13.30;99.90
5775;DHT22;2913;51.120;6.772;2024-02-14T13:32:18;13.30;99.90
5775;DHT22;2913;51.120;6.772;2024-02-14T13:34:43;13.30;99.90
5775;DHT22;2913;51.120;6.772;2024-02-14T13:37:09;13.20;99.90
5775;DHT22;2913;51.120;6.772;2024-02-14T13:39:35;13.20;99.90
5775;DHT22;2913;51.120;6.772;2024-02-14T13:42:01;13.20;99.90
5775;DHT22;2913;51.120;6.772;2024-02-14T13:44:30;13.20;99.90
5775;DHT22;2913;51.120;6.772;2024-02-14T13:46:55;13.20;99.90
5775;DHT22;2913;51.120;6.772;2024-02-14T13:49:21;13.20;99.90
5775;DHT22;2913;51.120;6.772;2024-02-14T13:51:51;13.20;99.90
5775;DHT22;2913;51.120;6.772;2024-02-14T13:54:20;13.30;99.90
5775;DHT22;2913;51.120;6.772;2024-02-14T13:56:49;13.30;99.90
5775;DHT22;2913;51.120;6.772;2024-02-14T13:59:17;13.30;99.90
5775;DHT22;2913;51.120;6.772;2024-02-14T14:01:47;13.30;99.90
5775;DHT22;2913;51.120;6.772;2024-02-14T14:04:13;13.40;99.90
5775;DHT22;2913;51.120;6.772;2024-02-14T14:06:38;13.40;99.90
5775;DHT22;2913;51.120;6.772;2024-02-14T14:09:07;13.40;99.90
5775;DHT22;2913;51.120;6.772;2024-02-14T14:11:36;13.30;99.90
5775;DHT22;2913;51.120;6.772;2024-02-14T14:14:04;13.30;99.90
5775;DHT22;2913;51.120;6.772;2024-02-14T14:16:29;13.30;99.90
5775;DHT22;2913;51.120;6.772;2024-02-14T14:21:22;13.20;99.90
5775;DHT22;2913;51.120;6.772;2024-02-14T14:23:47;13.20;99.90
5775;DHT22;2913;51.120;6.772;2024-02-14T14:26:15;13.10;99.90
5775;DHT22;2913;51.120;6.772;2024-02-14T14:31:09;13.10;99.90
5775;DHT22;2913;51.120;6.772;2024-02-14T14:33:40;13.00;99.90
5775;DHT22;2913;51.120;6.772;2024-02-14T14:36:06;13.00;99.90
5775;DHT22;2913;51.120;6.772;2024-02-14T14:38:32;13.00;99.90
5775;DHT22;2913;51.120;6.772;2024-02-14T14:40:58;12.80;99.90
5775;DHT22;2913;51.120;6.772;2024-02-14T14:43:26;12.80;99.90
5775;DHT22;2913;51.120;6.772;2024-02-14T14:45:53;12.70;99.90
5775;DHT22;2913;51.120;6.772;2024-02-14T14:48:18;12.70;99.90
5775;DHT22;2913;51.120;6.772;2024-02-14T14:50:44;12.70;99.90
5775;DHT22;2913;51.120;6.772;2024-02-14T14:53:10;12.60;99.90
5775;DHT22;2913;51.120;6.772;2024-02-14T14:55:55;12.70;99.90
5775;DHT22;2913;51.120;6.772;2024-02-14T14:58:24;12.50;99.90
5775;DHT22;2913;51.120;6.772;2024-02-14T15:00:55;12.50;99.90
5775;DHT22;2913;51.120;6.772;2024-02-14T15:03:21;12.60;99.90
5775;DHT22;2913;51.120;6.772;2024-02-14T15:05:49;12.50;99.90
5775;DHT22;2913;51.120;6.772;2024-02-14T15:08:19;12.50;99.90
5775;DHT22;2913;51.120;6.772;2024-02-14T15:10:51;12.50;99.90
5775;DHT22;2913;51.120;6.772;2024-02-14T15:13:18;12.50;99.90
5775;DHT22;2913;51.120;6.772;2024-02-14T15:15:46;12.50;99.90
5775;DHT22;2913;51.120;6.772;2024-02-14T15:18:14;12.50;99.90
5775;DHT22;2913;51.120;6.772;2024-02-14T15:20:40;12.40;99.90
5775;DHT22;2913;51.120;6.772;2024-02-14T15:23:05;12.50;99.90
5775;DHT22;2913;51.120;6.772;2024-02-14T15:25:33;12.50;99.90
5775;DHT22;2913;51.120;6.772;2024-02-14T15:28:06;12.50;99.90
5775;DHT22;2913;51.120;6.772;2024-02-14T15:30:32;12.50;99.90
5775;DHT22;2913;51.120;6.772;2024-02-14T15:33:16;12.50;99.90
5775;DHT22;2913;51.120;6.772;2024-02-14T15:35:54;12.50;99.90
5775;DHT22;2913;51.120;6.772;2024-02-14T15:38:20;12.50;99.90
5775;DHT22;2913;51.120;6.772;2024-02-14T15:40:47;12.40;99.90
5775;DHT22;2913;51.120;6.772;2024-02-14T15:43:14;12.50;99.90
5775;DHT22;2913;51.120;6.772;2024-02-14T15:45:42;12.50;99.90
5775;DHT22;2913;51.120;6.772;2024-02-14T15:48:08;12.50;99.90
5775;DHT22;2913;51.120;6.772;2024-02-14T15:50:38;12.60;99.90
5775;DHT22;2913;51.120;6.772;2024-02-14T15:53:06;12.60;99.90
5775;DHT22;2913;51.120;6.772;2024-02-14T15:55:37;12.60;99.90
5775;DHT22;2913;51.120;6.772;2024-02-14T15:58:05;12.80;99.90
5775;DHT22;2913;51.120;6.772;2024-02-14T16:00:34;12.60;99.90
5775;DHT22;2913;51.120;6.772;2024-02-14T16:03:00;12.60;99.90
5775;DHT22;2913;51.120;6.772;2024-02-14T16:05:26;12.60;99.90
5775;DHT22;2913;51.120;6.772;2024-02-14T16:07:54;12.60;99.90
5775;DHT22;2913;51.120;6.772;2024-02-14T16:12:51;12.60;99.90
5775;DHT22;2913;51.120;6.772;2024-02-14T16:15:19;12.60;99.90
5775;DHT22;2913;51.120;6.772;2024-02-14T16:17:47;12.60;99.90
5775;DHT22;2913;51.120;6.772;2024-02-14T16:20:15;12.60;99.90
5775;DHT22;2913;51.120;6.772;2024-02-14T16:22:43;12.60;99.90
5775;DHT22;2913;51.120;6.772;2024-02-14T16:25:13;12.60;99.90
5775;DHT22;2913;51.120;6.772;2024-02-14T16:27:39;12.60;99.90
5775;DHT22;2913;51.120;6.772;2024-02-14T16:30:06;12.60;99.90
5775;DHT22;2913;51.120;6.772;2024-02-14T16:32:32;12.60;99.90
5775;DHT22;2913;51.120;6.772;2024-02-14T16:34:58;12.60;99.90
5775;DHT22;2913;51.120;6.772;2024-02-14T16:37:28;12.60;99.90
5775;DHT22;2913;51.120;6.772;2024-02-14T16:39:54;12.60;99.90
5775;DHT22;2913;51.120;6.772;2024-02-14T16:42:20;12.60;99.90
5775;DHT22;2913;51.120;6.772;2024-02-14T16:44:46;12.60;99.90